sensor_id;sensor_type;location;lat;lon;timestamp;pressure;altitude;pressure_sealevel;temperature;humidity
34103;BME280;20381;54.498;18.206;2023-07-29T00:00:34;98841.49;;;11.54;78.48
34103;BME280;20381;54.498;18.206;2023-07-29T00:03:22;98846.27;;;11.53;78.61
34103;BME280;20381;54.498;18.206;2023-07-29T00:05:51;98851.52;;;11.47;78.09
34103;BME280;20381;54.498;18.206;2023-07-29T00:08:20;98851.78;;;11.38;77.95
34103;BME280;20381;54.498;18.206;2023-07-29T00:10:49;98851.97;;;11.29;78.18
34103;BME280;20381;54.498;18.206;2023-07-29T00:13:18;98852.73;;;11.28;78.73
34103;BME280;20381;54.498;18.206;2023-07-29T00:15:49;98848.13;;;11.29;79.03
34103;BME280;20381;54.498;18.206;2023-07-29T00:18:18;98846.04;;;11.29;79.07
34103;BME280;20381;54.498;18.206;2023-07-29T00:20:47;98849.96;;;11.28;79.07
34103;BME280;20381;54.498;18.206;2023-07-29T00:23:17;98847.53;;;11.28;79.31
34103;BME280;20381;54.498;18.206;2023-07-29T00:25:47;98847.48;;;11.29;79.56
34103;BME280;20381;54.498;18.206;2023-07-29T00:28:16;98844.89;;;11.31;79.71
34103;BME280;20381;54.498;18.206;2023-07-29T00:30:50;98840.31;;;11.34;79.85
34103;BME280;20381;54.498;18.206;2023-07-29T00:33:19;98839.44;;;11.37;80.12
34103;BME280;20381;54.498;18.206;2023-07-29T00:35:49;98835.91;;;11.41;80.19
34103;BME280;20381;54.498;18.206;2023-07-29T00:38:18;98834.85;;;11.47;80.48
34103;BME280;20381;54.498;18.206;2023-07-29T00:40:47;98836.54;;;11.50;80.61
34103;BME280;20381;54.498;18.206;2023-07-29T00:43:16;98833.42;;;11.58;80.90
34103;BME280;20381;54.498;18.206;2023-07-29T00:45:45;98834.13;;;11.63;80.89
34103;BME280;20381;54.498;18.206;2023-07-29T00:48:14;98831.34;;;11.68;80.94
34103;BME280;20381;54.498;18.206;2023-07-29T00:50:43;98833.56;;;11.74;81.19
34103;BME280;20381;54.498;18.206;2023-07-29T00:53:13;98837.11;;;11.76;81.22
34103;BME280;20381;54.498;18.206;2023-07-29T00:55:42;98842.64;;;11.76;81.24
34103;BME280;20381;54.498;18.206;2023-07-29T00:58:12;98844.58;;;11.79;81.12
34103;BME280;20381;54.498;18.206;2023-07-29T01:00:41;98848.59;;;11.79;81.13
34103;BME280;20381;54.498;18.206;2023-07-29T01:03:10;98845.77;;;11.76;80.97
34103;BME280;20381;54.498;18.206;2023-07-29T01:06:01;98844.46;;;11.73;80.83
34103;BME280;20381;54.498;18.206;2023-07-29T01:11:21;98845.00;;;11.64;81.32
34103;BME280;20381;54.498;18.206;2023-07-29T01:14:06;98848.91;;;11.63;81.41
34103;BME280;20381;54.498;18.206;2023-07-29T01:16:39;98847.85;;;11.64;81.64
34103;BME280;20381;54.498;18.206;2023-07-29T01:22:07;98845.83;;;11.63;82.05
34103;BME280;20381;54.498;18.206;2023-07-29T01:24:38;98844.83;;;11.62;82.02
34103;BME280;20381;54.498;18.206;2023-07-29T01:27:07;98843.14;;;11.61;82.21
34103;BME280;20381;54.498;18.206;2023-07-29T01:29:36;98839.92;;;11.62;82.49
34103;BME280;20381;54.498;18.206;2023-07-29T01:32:14;98843.59;;;11.65;82.77
34103;BME280;20381;54.498;18.206;2023-07-29T01:34:56;98849.29;;;11.66;82.63
34103;BME280;20381;54.498;18.206;2023-07-29T01:37:30;98845.27;;;11.63;82.45
34103;BME280;20381;54.498;18.206;2023-07-29T01:40:01;98847.11;;;11.61;82.67
34103;BME280;20381;54.498;18.206;2023-07-29T01:42:31;98848.98;;;11.59;82.86
34103;BME280;20381;54.498;18.206;2023-07-29T01:45:00;98850.95;;;11.62;83.04
34103;BME280;20381;54.498;18.206;2023-07-29T01:47:32;98848.77;;;11.63;83.02
34103;BME280;20381;54.498;18.206;2023-07-29T01:50:01;98853.40;;;11.59;82.89
34103;BME280;20381;54.498;18.206;2023-07-29T01:52:32;98855.52;;;11.56;83.02
34103;BME280;20381;54.498;18.206;2023-07-29T01:55:01;98856.63;;;11.55;83.35
34103;BME280;20381;54.498;18.206;2023-07-29T01:57:30;98858.13;;;11.53;83.51
34103;BME280;20381;54.498;18.206;2023-07-29T01:59:59;98858.09;;;11.53;83.85
34103;BME280;20381;54.498;18.206;2023-07-29T02:02:28;98858.44;;;11.56;83.96
34103;BME280;20381;54.498;18.206;2023-07-29T02:04:57;98858.90;;;11.57;84.02
34103;BME280;20381;54.498;18.206;2023-07-29T02:07:27;98856.09;;;11.57;84.04
34103;BME280;20381;54.498;18.206;2023-07-29T02:09:56;98858.34;;;11.58;84.10
34103;BME280;20381;54.498;18.206;2023-07-29T02:12:25;98862.23;;;11.60;84.19
34103;BME280;20381;54.498;18.206;2023-07-29T02:14:54;98861.55;;;11.62;84.57
34103;BME280;20381;54.498;18.206;2023-07-29T02:17:23;98861.56;;;11.65;84.52
34103;BME280;20381;54.498;18.206;2023-07-29T02:19:52;98862.27;;;11.67;84.70
34103;BME280;20381;54.498;18.206;2023-07-29T02:22:21;98865.25;;;11.72;84.91
34103;BME280;20381;54.498;18.206;2023-07-29T02:24:50;98864.16;;;11.78;85.09
34103;BME280;20381;54.498;18.206;2023-07-29T02:27:19;98866.96;;;11.83;85.12
34103;BME280;20381;54.498;18.206;2023-07-29T02:29:48;98867.29;;;11.86;85.18
34103;BME280;20381;54.498;18.206;2023-07-29T02:32:17;98871.23;;;11.91;85.42
34103;BME280;20381;54.498;18.206;2023-07-29T02:34:46;98871.33;;;11.97;85.52
34103;BME280;20381;54.498;18.206;2023-07-29T02:37:15;98873.89;;;12.00;85.38
34103;BME280;20381;54.498;18.206;2023-07-29T02:39:44;98874.52;;;12.01;85.33
34103;BME280;20381;54.498;18.206;2023-07-29T02:42:16;98875.09;;;12.03;85.52
34103;BME280;20381;54.498;18.206;2023-07-29T02:44:45;98879.69;;;12.10;85.50
34103;BME280;20381;54.498;18.206;2023-07-29T02:47:14;98878.75;;;12.16;85.52
34103;BME280;20381;54.498;18.206;2023-07-29T02:49:43;98878.19;;;12.24;85.79
34103;BME280;20381;54.498;18.206;2023-07-29T02:52:11;98877.25;;;12.30;85.74
34103;BME280;20381;54.498;18.206;2023-07-29T02:54:41;98877.63;;;12.38;86.08
34103;BME280;20381;54.498;18.206;2023-07-29T02:57:09;98879.86;;;12.46;86.48
34103;BME280;20381;54.498;18.206;2023-07-29T02:59:38;98883.37;;;12.54;86.56
34103;BME280;20381;54.498;18.206;2023-07-29T03:02:07;98883.52;;;12.59;86.73
34103;BME280;20381;54.498;18.206;2023-07-29T03:04:36;98888.30;;;12.63;86.89
34103;BME280;20381;54.498;18.206;2023-07-29T03:07:06;98890.86;;;12.71;87.12
34103;BME280;20381;54.498;18.206;2023-07-29T03:09:34;98889.45;;;12.80;87.19
34103;BME280;20381;54.498;18.206;2023-07-29T03:12:05;98891.60;;;12.86;87.57
34103;BME280;20381;54.498;18.206;2023-07-29T03:14:34;98892.27;;;12.94;87.65
34103;BME280;20381;54.498;18.206;2023-07-29T03:17:03;98901.14;;;13.02;87.64
34103;BME280;20381;54.498;18.206;2023-07-29T03:19:33;98906.68;;;13.10;87.79
34103;BME280;20381;54.498;18.206;2023-07-29T03:22:02;98903.58;;;13.19;87.88
34103;BME280;20381;54.498;18.206;2023-07-29T03:24:31;98902.14;;;13.25;87.99
34103;BME280;20381;54.498;18.206;2023-07-29T03:27:00;98898.77;;;13.31;87.96
34103;BME280;20381;54.498;18.206;2023-07-29T03:29:29;98897.06;;;13.35;87.85
34103;BME280;20381;54.498;18.206;2023-07-29T03:31:58;98898.58;;;13.38;87.85
34103;BME280;20381;54.498;18.206;2023-07-29T03:34:27;98897.86;;;13.41;88.03
34103;BME280;20381;54.498;18.206;2023-07-29T03:36:56;98900.80;;;13.44;88.37
34103;BME280;20381;54.498;18.206;2023-07-29T03:39:25;98901.52;;;13.49;88.48
34103;BME280;20381;54.498;18.206;2023-07-29T03:41:54;98898.98;;;13.54;88.50
34103;BME280;20381;54.498;18.206;2023-07-29T03:44:23;98898.30;;;13.59;88.62
34103;BME280;20381;54.498;18.206;2023-07-29T03:46:52;98899.98;;;13.62;88.63
34103;BME280;20381;54.498;18.206;2023-07-29T03:49:21;98906.48;;;13.67;88.74
34103;BME280;20381;54.498;18.206;2023-07-29T03:51:50;98913.20;;;13.73;88.87
34103;BME280;20381;54.498;18.206;2023-07-29T03:54:19;98914.46;;;13.80;88.93
34103;BME280;20381;54.498;18.206;2023-07-29T03:56:48;98912.10;;;13.86;89.09
34103;BME280;20381;54.498;18.206;2023-07-29T03:59:17;98910.63;;;13.94;89.11
34103;BME280;20381;54.498;18.206;2023-07-29T04:01:46;98913.61;;;14.01;89.29
34103;BME280;20381;54.498;18.206;2023-07-29T04:04:15;98918.83;;;14.11;89.19
34103;BME280;20381;54.498;18.206;2023-07-29T04:06:44;98918.32;;;14.16;88.99
34103;BME280;20381;54.498;18.206;2023-07-29T04:09:13;98916.23;;;14.25;89.25
34103;BME280;20381;54.498;18.206;2023-07-29T04:11:43;98917.70;;;14.35;89.34
34103;BME280;20381;54.498;18.206;2023-07-29T04:14:12;98918.71;;;14.40;89.07
34103;BME280;20381;54.498;18.206;2023-07-29T04:16:41;98919.17;;;14.45;89.13
34103;BME280;20381;54.498;18.206;2023-07-29T04:19:10;98923.75;;;14.50;89.17
34103;BME280;20381;54.498;18.206;2023-07-29T04:21:39;98923.13;;;14.59;89.36
34103;BME280;20381;54.498;18.206;2023-07-29T04:24:09;98922.82;;;14.65;89.26
34103;BME280;20381;54.498;18.206;2023-07-29T04:26:38;98921.57;;;14.72;89.48
34103;BME280;20381;54.498;18.206;2023-07-29T04:29:08;98921.48;;;14.84;89.61
34103;BME280;20381;54.498;18.206;2023-07-29T04:31:37;98919.68;;;14.92;89.52
34103;BME280;20381;54.498;18.206;2023-07-29T04:34:05;98917.41;;;15.06;89.64
34103;BME280;20381;54.498;18.206;2023-07-29T04:36:34;98916.55;;;15.16;89.58
34103;BME280;20381;54.498;18.206;2023-07-29T04:39:04;98916.17;;;15.25;89.46
34103;BME280;20381;54.498;18.206;2023-07-29T04:41:33;98909.11;;;15.32;89.31
34103;BME280;20381;54.498;18.206;2023-07-29T04:44:02;98913.67;;;15.41;89.45
34103;BME280;20381;54.498;18.206;2023-07-29T04:46:31;98916.30;;;15.48;89.20
34103;BME280;20381;54.498;18.206;2023-07-29T04:49:00;98920.81;;;15.51;89.22
34103;BME280;20381;54.498;18.206;2023-07-29T04:51:29;98920.90;;;15.54;89.25
34103;BME280;20381;54.498;18.206;2023-07-29T04:54:00;98921.59;;;15.61;89.39
34103;BME280;20381;54.498;18.206;2023-07-29T04:56:30;98918.59;;;15.61;88.96
34103;BME280;20381;54.498;18.206;2023-07-29T04:58:59;98917.59;;;15.60;89.09
34103;BME280;20381;54.498;18.206;2023-07-29T05:01:28;98915.58;;;15.59;88.98
34103;BME280;20381;54.498;18.206;2023-07-29T05:03:57;98919.73;;;15.64;89.32
34103;BME280;20381;54.498;18.206;2023-07-29T05:06:27;98916.75;;;15.71;89.48
34103;BME280;20381;54.498;18.206;2023-07-29T05:08:58;98917.88;;;15.77;89.43
34103;BME280;20381;54.498;18.206;2023-07-29T05:11:26;98915.94;;;15.83;89.50
34103;BME280;20381;54.498;18.206;2023-07-29T05:13:56;98913.40;;;15.95;89.69
34103;BME280;20381;54.498;18.206;2023-07-29T05:16:25;98915.44;;;16.06;89.57
34103;BME280;20381;54.498;18.206;2023-07-29T05:18:54;98918.27;;;16.19;89.78
34103;BME280;20381;54.498;18.206;2023-07-29T05:21:23;98917.42;;;16.37;90.02
34103;BME280;20381;54.498;18.206;2023-07-29T05:23:52;98913.70;;;16.54;89.77
34103;BME280;20381;54.498;18.206;2023-07-29T05:26:22;98912.29;;;16.69;89.85
34103;BME280;20381;54.498;18.206;2023-07-29T05:28:51;98916.52;;;16.84;89.58
34103;BME280;20381;54.498;18.206;2023-07-29T05:31:22;98912.67;;;16.95;89.39
34103;BME280;20381;54.498;18.206;2023-07-29T05:33:51;98912.79;;;17.08;89.28
34103;BME280;20381;54.498;18.206;2023-07-29T05:36:24;98917.64;;;17.23;89.33
34103;BME280;20381;54.498;18.206;2023-07-29T05:39:00;98922.35;;;17.30;88.81
34103;BME280;20381;54.498;18.206;2023-07-29T05:41:35;98920.59;;;17.30;88.56
34103;BME280;20381;54.498;18.206;2023-07-29T05:44:04;98920.32;;;17.27;88.26
34103;BME280;20381;54.498;18.206;2023-07-29T05:46:38;98926.27;;;17.25;88.29
34103;BME280;20381;54.498;18.206;2023-07-29T05:49:08;98922.81;;;17.29;88.23
34103;BME280;20381;54.498;18.206;2023-07-29T05:51:40;98917.33;;;17.35;88.44
34103;BME280;20381;54.498;18.206;2023-07-29T05:54:09;98916.15;;;17.50;88.84
34103;BME280;20381;54.498;18.206;2023-07-29T05:56:39;98921.13;;;17.69;88.77
34103;BME280;20381;54.498;18.206;2023-07-29T05:59:08;98924.84;;;17.89;88.69
34103;BME280;20381;54.498;18.206;2023-07-29T06:01:37;98927.09;;;18.07;88.49
34103;BME280;20381;54.498;18.206;2023-07-29T06:04:06;98928.61;;;18.25;88.39
34103;BME280;20381;54.498;18.206;2023-07-29T06:06:36;98932.98;;;18.46;88.27
34103;BME280;20381;54.498;18.206;2023-07-29T06:09:06;98932.91;;;18.70;87.98
34103;BME280;20381;54.498;18.206;2023-07-29T06:11:36;98934.17;;;18.89;87.74
34103;BME280;20381;54.498;18.206;2023-07-29T06:14:05;98931.74;;;19.05;87.24
34103;BME280;20381;54.498;18.206;2023-07-29T06:16:34;98935.29;;;19.11;86.55
34103;BME280;20381;54.498;18.206;2023-07-29T06:19:14;98939.41;;;19.19;86.66
34103;BME280;20381;54.498;18.206;2023-07-29T06:21:55;98939.98;;;19.36;86.42
34103;BME280;20381;54.498;18.206;2023-07-29T06:24:25;98936.84;;;19.57;86.71
34103;BME280;20381;54.498;18.206;2023-07-29T06:26:54;98931.36;;;19.82;86.59
34103;BME280;20381;54.498;18.206;2023-07-29T06:29:23;98936.43;;;19.94;85.62
34103;BME280;20381;54.498;18.206;2023-07-29T06:31:52;98936.02;;;19.99;85.24
34103;BME280;20381;54.498;18.206;2023-07-29T06:34:21;98935.67;;;20.05;85.03
34103;BME280;20381;54.498;18.206;2023-07-29T06:36:55;98937.43;;;20.16;85.05
34103;BME280;20381;54.498;18.206;2023-07-29T06:39:26;98932.13;;;20.28;84.76
34103;BME280;20381;54.498;18.206;2023-07-29T06:41:58;98937.60;;;20.46;84.19
34103;BME280;20381;54.498;18.206;2023-07-29T06:44:28;98938.70;;;20.62;83.95
34103;BME280;20381;54.498;18.206;2023-07-29T06:46:58;98929.80;;;20.78;83.36
34103;BME280;20381;54.498;18.206;2023-07-29T06:49:26;98931.00;;;21.01;83.27
34103;BME280;20381;54.498;18.206;2023-07-29T06:51:56;98930.55;;;21.33;83.08
34103;BME280;20381;54.498;18.206;2023-07-29T06:54:25;98933.77;;;21.59;82.59
34103;BME280;20381;54.498;18.206;2023-07-29T06:56:58;98932.23;;;21.90;82.51
34103;BME280;20381;54.498;18.206;2023-07-29T06:59:26;98929.42;;;22.22;81.67
34103;BME280;20381;54.498;18.206;2023-07-29T07:01:56;98931.73;;;22.49;81.06
34103;BME280;20381;54.498;18.206;2023-07-29T07:04:34;98938.64;;;22.93;81.64
34103;BME280;20381;54.498;18.206;2023-07-29T07:07:12;98934.55;;;23.42;81.10
34103;BME280;20381;54.498;18.206;2023-07-29T07:09:42;98932.09;;;24.01;79.52
34103;BME280;20381;54.498;18.206;2023-07-29T07:12:11;98929.87;;;24.34;79.31
34103;BME280;20381;54.498;18.206;2023-07-29T07:14:41;98925.20;;;24.83;79.02
34103;BME280;20381;54.498;18.206;2023-07-29T07:17:12;98922.82;;;25.39;78.32
34103;BME280;20381;54.498;18.206;2023-07-29T07:19:41;98922.27;;;26.09;77.98
34103;BME280;20381;54.498;18.206;2023-07-29T07:22:11;98923.69;;;26.83;76.45
34103;BME280;20381;54.498;18.206;2023-07-29T07:24:43;98918.33;;;27.42;74.53
34103;BME280;20381;54.498;18.206;2023-07-29T07:27:13;98911.66;;;28.06;74.13
34103;BME280;20381;54.498;18.206;2023-07-29T07:29:42;98909.79;;;28.71;74.35
34103;BME280;20381;54.498;18.206;2023-07-29T07:32:11;98913.13;;;29.50;73.59
34103;BME280;20381;54.498;18.206;2023-07-29T07:34:40;98913.44;;;30.65;74.00
34103;BME280;20381;54.498;18.206;2023-07-29T07:37:09;98914.46;;;31.89;70.76
34103;BME280;20381;54.498;18.206;2023-07-29T07:39:38;98911.47;;;32.44;68.26
34103;BME280;20381;54.498;18.206;2023-07-29T07:42:08;98909.30;;;32.64;67.38
34103;BME280;20381;54.498;18.206;2023-07-29T07:44:37;98910.55;;;33.31;67.86
34103;BME280;20381;54.498;18.206;2023-07-29T07:47:06;98905.94;;;33.96;66.66
34103;BME280;20381;54.498;18.206;2023-07-29T07:49:35;98910.10;;;34.70;65.57
34103;BME280;20381;54.498;18.206;2023-07-29T07:52:05;98906.27;;;35.62;64.84
34103;BME280;20381;54.498;18.206;2023-07-29T07:54:34;98907.91;;;36.79;63.73
34103;BME280;20381;54.498;18.206;2023-07-29T07:57:03;98907.90;;;37.92;61.78
34103;BME280;20381;54.498;18.206;2023-07-29T07:59:32;98906.16;;;38.41;59.64
34103;BME280;20381;54.498;18.206;2023-07-29T08:02:01;98900.08;;;38.69;56.95
34103;BME280;20381;54.498;18.206;2023-07-29T08:04:30;98899.61;;;38.73;56.59
34103;BME280;20381;54.498;18.206;2023-07-29T08:06:59;98898.98;;;38.96;54.88
34103;BME280;20381;54.498;18.206;2023-07-29T08:09:28;98899.30;;;38.98;54.27
34103;BME280;20381;54.498;18.206;2023-07-29T08:11:57;98888.22;;;39.21;52.52
34103;BME280;20381;54.498;18.206;2023-07-29T08:14:26;98887.69;;;39.62;52.08
34103;BME280;20381;54.498;18.206;2023-07-29T08:16:55;98885.11;;;40.22;50.97
34103;BME280;20381;54.498;18.206;2023-07-29T08:19:24;98883.17;;;40.70;49.04
34103;BME280;20381;54.498;18.206;2023-07-29T08:21:54;98883.85;;;40.83;47.60
34103;BME280;20381;54.498;18.206;2023-07-29T08:24:23;98885.13;;;40.76;45.34
34103;BME280;20381;54.498;18.206;2023-07-29T08:26:53;98885.00;;;40.14;42.38
34103;BME280;20381;54.498;18.206;2023-07-29T08:29:22;98878.66;;;39.32;41.60
34103;BME280;20381;54.498;18.206;2023-07-29T08:31:51;98876.44;;;39.29;41.81
34103;BME280;20381;54.498;18.206;2023-07-29T08:34:23;98876.38;;;39.99;41.03
34103;BME280;20381;54.498;18.206;2023-07-29T08:36:52;98871.61;;;40.44;39.70
34103;BME280;20381;54.498;18.206;2023-07-29T08:39:22;98874.16;;;40.70;37.92
34103;BME280;20381;54.498;18.206;2023-07-29T08:41:54;98876.67;;;40.30;36.68
34103;BME280;20381;54.498;18.206;2023-07-29T08:44:26;98875.16;;;40.26;37.13
34103;BME280;20381;54.498;18.206;2023-07-29T08:46:56;98871.65;;;40.73;35.48
34103;BME280;20381;54.498;18.206;2023-07-29T08:49:36;98864.32;;;40.95;34.88
34103;BME280;20381;54.498;18.206;2023-07-29T08:52:10;98865.76;;;41.95;34.76
34103;BME280;20381;54.498;18.206;2023-07-29T08:54:43;98863.86;;;42.65;33.54
34103;BME280;20381;54.498;18.206;2023-07-29T08:57:13;98872.13;;;43.08;32.25
34103;BME280;20381;54.498;18.206;2023-07-29T08:59:46;98867.31;;;43.22;32.83
34103;BME280;20381;54.498;18.206;2023-07-29T09:02:16;98867.67;;;44.35;31.92
34103;BME280;20381;54.498;18.206;2023-07-29T09:04:47;98870.36;;;44.55;29.82
34103;BME280;20381;54.498;18.206;2023-07-29T09:07:19;98866.60;;;44.37;29.48
34103;BME280;20381;54.498;18.206;2023-07-29T09:09:51;98866.36;;;44.62;28.77
34103;BME280;20381;54.498;18.206;2023-07-29T09:12:30;98862.38;;;45.00;27.94
34103;BME280;20381;54.498;18.206;2023-07-29T09:15:01;98861.30;;;45.20;27.46
34103;BME280;20381;54.498;18.206;2023-07-29T09:17:35;98863.86;;;45.19;26.14
34103;BME280;20381;54.498;18.206;2023-07-29T09:20:09;98866.98;;;45.21;26.69
34103;BME280;20381;54.498;18.206;2023-07-29T09:22:43;98862.04;;;45.67;25.68
34103;BME280;20381;54.498;18.206;2023-07-29T09:25:14;98865.89;;;45.46;25.03
34103;BME280;20381;54.498;18.206;2023-07-29T09:27:46;98860.79;;;45.33;24.83
34103;BME280;20381;54.498;18.206;2023-07-29T09:30:17;98865.07;;;45.40;24.78
34103;BME280;20381;54.498;18.206;2023-07-29T09:32:47;98855.63;;;45.63;24.26
34103;BME280;20381;54.498;18.206;2023-07-29T09:35:17;98856.80;;;45.93;24.08
34103;BME280;20381;54.498;18.206;2023-07-29T09:37:59;98860.55;;;46.84;23.19
34103;BME280;20381;54.498;18.206;2023-07-29T09:40:35;98855.09;;;46.94;22.35
34103;BME280;20381;54.498;18.206;2023-07-29T09:43:09;98857.48;;;47.35;22.85
34103;BME280;20381;54.498;18.206;2023-07-29T09:45:47;98851.88;;;48.14;22.81
34103;BME280;20381;54.498;18.206;2023-07-29T09:48:22;98850.70;;;49.22;22.49
34103;BME280;20381;54.498;18.206;2023-07-29T09:50:55;98841.80;;;50.21;22.26
34103;BME280;20381;54.498;18.206;2023-07-29T09:53:28;98843.98;;;50.87;21.35
34103;BME280;20381;54.498;18.206;2023-07-29T09:55:58;98845.27;;;51.08;20.33
34103;BME280;20381;54.498;18.206;2023-07-29T09:58:28;98840.14;;;50.82;20.37
34103;BME280;20381;54.498;18.206;2023-07-29T10:00:57;98838.45;;;50.91;19.98
34103;BME280;20381;54.498;18.206;2023-07-29T10:03:27;98834.80;;;51.76;19.84
34103;BME280;20381;54.498;18.206;2023-07-29T10:06:02;98839.63;;;51.62;17.76
34103;BME280;20381;54.498;18.206;2023-07-29T10:08:32;98835.08;;;50.36;18.51
34103;BME280;20381;54.498;18.206;2023-07-29T10:11:08;98834.67;;;49.88;18.17
34103;BME280;20381;54.498;18.206;2023-07-29T10:13:38;98832.44;;;50.05;18.06
34103;BME280;20381;54.498;18.206;2023-07-29T10:16:07;98833.10;;;50.84;18.08
34103;BME280;20381;54.498;18.206;2023-07-29T10:18:38;98835.80;;;51.82;17.45
34103;BME280;20381;54.498;18.206;2023-07-29T10:21:08;98832.20;;;51.55;16.54
34103;BME280;20381;54.498;18.206;2023-07-29T10:23:42;98831.05;;;51.51;16.90
34103;BME280;20381;54.498;18.206;2023-07-29T10:26:24;98833.91;;;52.47;16.58
34103;BME280;20381;54.498;18.206;2023-07-29T10:28:58;98836.01;;;52.95;15.94
34103;BME280;20381;54.498;18.206;2023-07-29T10:31:34;98833.61;;;53.24;15.74
34103;BME280;20381;54.498;18.206;2023-07-29T10:34:06;98826.48;;;53.38;15.74
34103;BME280;20381;54.498;18.206;2023-07-29T10:36:36;98820.69;;;53.30;15.45
34103;BME280;20381;54.498;18.206;2023-07-29T10:39:09;98821.30;;;54.28;15.50
34103;BME280;20381;54.498;18.206;2023-07-29T10:42:00;98813.76;;;54.24;14.29
34103;BME280;20381;54.498;18.206;2023-07-29T10:47:25;98816.64;;;54.55;14.12
34103;BME280;20381;54.498;18.206;2023-07-29T10:49:57;98818.14;;;54.89;13.58
34103;BME280;20381;54.498;18.206;2023-07-29T10:52:49;98812.69;;;54.86;13.59
34103;BME280;20381;54.498;18.206;2023-07-29T10:55:37;98813.52;;;55.48;13.29
34103;BME280;20381;54.498;18.206;2023-07-29T10:58:14;98815.17;;;55.66;13.26
34103;BME280;20381;54.498;18.206;2023-07-29T11:00:45;98814.17;;;55.93;13.13
34103;BME280;20381;54.498;18.206;2023-07-29T11:03:14;98812.42;;;56.07;12.97
34103;BME280;20381;54.498;18.206;2023-07-29T11:05:50;98801.73;;;54.96;11.45
34103;BME280;20381;54.498;18.206;2023-07-29T11:08:22;98797.95;;;53.69;12.07
34103;BME280;20381;54.498;18.206;2023-07-29T11:11:03;98797.66;;;54.61;12.54
34103;BME280;20381;54.498;18.206;2023-07-29T11:13:35;98796.24;;;55.50;12.26
34103;BME280;20381;54.498;18.206;2023-07-29T11:16:10;98792.48;;;55.72;12.17
34103;BME280;20381;54.498;18.206;2023-07-29T11:18:39;98795.70;;;56.18;12.45
34103;BME280;20381;54.498;18.206;2023-07-29T11:21:10;98794.23;;;56.15;11.92
34103;BME280;20381;54.498;18.206;2023-07-29T11:23:38;98789.14;;;55.09;11.75
34103;BME280;20381;54.498;18.206;2023-07-29T11:26:08;98788.77;;;53.69;11.80
34103;BME280;20381;54.498;18.206;2023-07-29T11:28:40;98785.52;;;52.84;11.67
34103;BME280;20381;54.498;18.206;2023-07-29T11:31:09;98785.02;;;51.76;11.38
34103;BME280;20381;54.498;18.206;2023-07-29T11:33:41;98786.20;;;50.67;11.97
34103;BME280;20381;54.498;18.206;2023-07-29T11:36:32;98778.11;;;50.11;11.79
34103;BME280;20381;54.498;18.206;2023-07-29T11:39:40;98773.33;;;49.85;12.36
34103;BME280;20381;54.498;18.206;2023-07-29T11:42:25;98771.56;;;49.90;12.56
34103;BME280;20381;54.498;18.206;2023-07-29T11:45:01;98771.05;;;50.02;12.43
34103;BME280;20381;54.498;18.206;2023-07-29T11:48:14;98761.98;;;46.93;12.33
34103;BME280;20381;54.498;18.206;2023-07-29T11:50:45;98755.64;;;44.63;12.86
34103;BME280;20381;54.498;18.206;2023-07-29T11:53:15;98760.46;;;43.41;13.50
34103;BME280;20381;54.498;18.206;2023-07-29T11:55:55;98759.92;;;43.47;13.74
34103;BME280;20381;54.498;18.206;2023-07-29T11:58:37;98754.86;;;43.25;14.10
34103;BME280;20381;54.498;18.206;2023-07-29T12:01:11;98755.56;;;42.55;14.25
34103;BME280;20381;54.498;18.206;2023-07-29T12:03:45;98748.17;;;41.26;14.52
34103;BME280;20381;54.498;18.206;2023-07-29T12:06:15;98747.92;;;40.19;15.31
34103;BME280;20381;54.498;18.206;2023-07-29T12:08:48;98746.58;;;39.65;15.57
34103;BME280;20381;54.498;18.206;2023-07-29T12:11:24;98741.52;;;39.29;16.03
34103;BME280;20381;54.498;18.206;2023-07-29T12:13:54;98735.38;;;38.74;16.17
34103;BME280;20381;54.498;18.206;2023-07-29T12:16:24;98734.34;;;37.63;16.52
34103;BME280;20381;54.498;18.206;2023-07-29T12:19:05;98731.65;;;36.46;17.34
34103;BME280;20381;54.498;18.206;2023-07-29T12:21:53;98729.86;;;35.82;17.94
34103;BME280;20381;54.498;18.206;2023-07-29T12:24:32;98727.92;;;35.50;18.18
34103;BME280;20381;54.498;18.206;2023-07-29T12:27:03;98729.11;;;35.19;18.61
34103;BME280;20381;54.498;18.206;2023-07-29T12:29:32;98723.33;;;34.71;18.80
34103;BME280;20381;54.498;18.206;2023-07-29T12:32:11;98726.08;;;33.98;19.62
34103;BME280;20381;54.498;18.206;2023-07-29T12:34:43;98726.14;;;33.12;19.73
34103;BME280;20381;54.498;18.206;2023-07-29T12:37:13;98723.38;;;32.83;20.31
34103;BME280;20381;54.498;18.206;2023-07-29T12:39:42;98728.47;;;32.54;20.80
34103;BME280;20381;54.498;18.206;2023-07-29T12:42:11;98727.84;;;32.10;20.98
34103;BME280;20381;54.498;18.206;2023-07-29T12:44:40;98729.05;;;31.54;22.04
34103;BME280;20381;54.498;18.206;2023-07-29T12:47:09;98724.69;;;30.84;22.31
34103;BME280;20381;54.498;18.206;2023-07-29T12:49:43;98730.70;;;29.96;23.34
34103;BME280;20381;54.498;18.206;2023-07-29T12:52:17;98733.20;;;29.46;23.72
34103;BME280;20381;54.498;18.206;2023-07-29T12:54:51;98728.37;;;29.22;23.79
34103;BME280;20381;54.498;18.206;2023-07-29T12:57:20;98725.40;;;29.27;24.31
34103;BME280;20381;54.498;18.206;2023-07-29T12:59:50;98716.95;;;29.17;24.64
34103;BME280;20381;54.498;18.206;2023-07-29T13:02:21;98723.75;;;28.90;24.90
34103;BME280;20381;54.498;18.206;2023-07-29T13:04:50;98728.27;;;28.49;25.27
34103;BME280;20381;54.498;18.206;2023-07-29T13:07:19;98729.41;;;28.18;25.85
34103;BME280;20381;54.498;18.206;2023-07-29T13:09:48;98733.55;;;27.89;27.02
34103;BME280;20381;54.498;18.206;2023-07-29T13:12:18;98731.06;;;27.49;27.26
34103;BME280;20381;54.498;18.206;2023-07-29T13:14:47;98732.68;;;27.19;27.42
34103;BME280;20381;54.498;18.206;2023-07-29T13:17:18;98734.44;;;27.09;28.26
34103;BME280;20381;54.498;18.206;2023-07-29T13:19:48;98725.06;;;27.01;28.30